createdAt,value
2022-10-23T00:01:35.672Z,98553.88
2022-10-23T00:04:07.894Z,98549.75
2022-10-23T00:06:35.544Z,98551.38
2022-10-23T00:09:03.464Z,98547.00
2022-10-23T00:11:30.723Z,98552.41
2022-10-23T00:13:59.743Z,98550.88
2022-10-23T00:16:27.352Z,98557.91
2022-10-23T00:18:53.907Z,98564.06
2022-10-23T00:21:21.333Z,98560.56
2022-10-23T00:23:48.029Z,98558.78
2022-10-23T00:26:17.748Z,98561.41
2022-10-23T00:28:46.329Z,98563.25
2022-10-23T00:31:13.544Z,98555.28
2022-10-23T00:33:41.177Z,98555.50
2022-10-23T00:36:10.579Z,98557.91
2022-10-23T00:38:37.836Z,98561.28
2022-10-23T00:41:06.856Z,98568.41
2022-10-23T00:43:34.833Z,98558.56
2022-10-23T00:46:01.718Z,98554.81
2022-10-23T00:48:29.089Z,98556.53
2022-10-23T00:50:56.183Z,98553.03
2022-10-23T00:53:23.846Z,98542.66
2022-10-23T00:55:53.918Z,98547.31
2022-10-23T00:58:21.340Z,98546.38
2022-10-23T01:00:54.595Z,98535.03
2022-10-23T01:03:24.987Z,98534.81
2022-10-23T01:06:08.698Z,98537.44
2022-10-23T01:09:01.768Z,98539.41
2022-10-23T01:11:36.829Z,98547.72
2022-10-23T01:14:25.874Z,98544.44
2022-10-23T01:17:04.462Z,98542.09
2022-10-23T01:19:56.087Z,98541.97
2022-10-23T01:22:48.835Z,98544.56
2022-10-23T01:25:33.069Z,98540.16
2022-10-23T01:28:08.537Z,98540.38
2022-10-23T01:33:14.665Z,98540.16
2022-10-23T01:35:49.237Z,98534.13
2022-10-23T01:38:35.278Z,98538.66
2022-10-23T01:41:09.945Z,98530.97
2022-10-23T01:43:47.143Z,98531.59
2022-10-23T01:46:17.523Z,98536.59
2022-10-23T01:48:52.829Z,98536.31
2022-10-23T01:51:22.111Z,98528.28
2022-10-23T01:53:52.687Z,98513.03
2022-10-23T01:56:25.862Z,98513.09
2022-10-23T01:58:55.539Z,98507.81
2022-10-23T02:01:26.069Z,98510.44
2022-10-23T02:03:53.991Z,98502.47
2022-10-23T02:06:20.723Z,98500.66
2022-10-23T02:08:47.519Z,98495.38
2022-10-23T02:11:17.242Z,98497.72
2022-10-23T02:14:07.952Z,98491.63
2022-10-23T02:16:46.498Z,98491.47
2022-10-23T02:19:31.909Z,98473.91
2022-10-23T02:22:12.383Z,98476.00
2022-10-23T02:24:45.625Z,98465.69
2022-10-23T02:27:17.343Z,98471.03
2022-10-23T02:29:49.715Z,98470.34
2022-10-23T02:32:20.280Z,98468.63
2022-10-23T02:34:50.880Z,98465.06
2022-10-23T02:37:17.573Z,98467.09
2022-10-23T02:39:44.566Z,98473.97
2022-10-23T02:42:33.865Z,98473.28
2022-10-23T02:45:22.402Z,98477.03
2022-10-23T02:47:52.006Z,98482.59
2022-10-23T02:50:37.923Z,98483.47
2022-10-23T02:53:19.008Z,98481.75
2022-10-23T02:55:57.834Z,98476.47
2022-10-23T02:58:28.295Z,98476.19
2022-10-23T03:01:12.414Z,98471.69
2022-10-23T03:03:45.758Z,98473.34
2022-10-23T03:06:12.980Z,98466.47
2022-10-23T03:08:54.364Z,98462.75
2022-10-23T03:11:21.249Z,98465.44
2022-10-23T03:13:47.934Z,98464.69
2022-10-23T03:16:14.485Z,98474.75
2022-10-23T03:18:41.137Z,98467.41
2022-10-23T03:21:08.052Z,98465.03
2022-10-23T03:23:34.727Z,98466.38
2022-10-23T03:26:01.271Z,98465.75
2022-10-23T03:28:27.855Z,98468.56
2022-10-23T03:30:54.522Z,98469.91
2022-10-23T03:33:21.177Z,98459.66
2022-10-23T03:35:50.968Z,98458.56
2022-10-23T03:38:17.575Z,98462.00
2022-10-23T03:40:44.122Z,98456.84
2022-10-23T03:43:10.854Z,98461.16
2022-10-23T03:45:38.830Z,98460.19
2022-10-23T03:48:06.409Z,98465.56
2022-10-23T03:50:33.837Z,98474.28
2022-10-23T03:53:00.533Z,98474.28
2022-10-23T03:55:27.343Z,98465.75
2022-10-23T03:57:54.699Z,98479.00
2022-10-23T04:00:21.661Z,98469.41
2022-10-23T04:02:48.696Z,98476.09
2022-10-23T04:05:15.540Z,98475.69
2022-10-23T04:07:42.094Z,98478.63
2022-10-23T04:10:09.193Z,98474.22
2022-10-23T04:12:35.819Z,98467.81
2022-10-23T04:15:02.641Z,98465.31
2022-10-23T04:17:29.164Z,98460.28
2022-10-23T04:19:56.055Z,98461.06
2022-10-23T04:22:24.792Z,98469.66
2022-10-23T04:24:54.225Z,98470.63
2022-10-23T04:27:20.859Z,98469.00
2022-10-23T04:29:47.393Z,98468.41
2022-10-23T04:32:14.022Z,98471.78
2022-10-23T04:34:40.671Z,98471.94
2022-10-23T04:37:07.380Z,98472.03
2022-10-23T04:39:34.089Z,98477.56
2022-10-23T04:42:00.765Z,98457.47
2022-10-23T04:44:27.486Z,98461.78
2022-10-23T04:46:54.080Z,98461.03
2022-10-23T04:49:20.651Z,98462.75
2022-10-23T04:51:47.402Z,98468.19
2022-10-23T04:54:13.897Z,98471.97
2022-10-23T04:56:41.023Z,98472.22
2022-10-23T04:59:07.708Z,98463.56
2022-10-23T05:01:34.530Z,98455.78
2022-10-23T05:04:01.910Z,98460.34
2022-10-23T05:06:28.569Z,98455.13
2022-10-23T05:08:55.844Z,98456.19
2022-10-23T05:11:22.680Z,98459.81
2022-10-23T05:13:49.349Z,98450.41
2022-10-23T05:16:48.431Z,98450.44
2022-10-23T05:19:24.555Z,98448.00
2022-10-23T05:21:56.150Z,98445.47
2022-10-23T05:24:23.515Z,98450.69
2022-10-23T05:26:52.938Z,98442.78
2022-10-23T05:29:20.484Z,98442.59
2022-10-23T05:31:50.811Z,98452.13
2022-10-23T05:34:20.863Z,98444.09
2022-10-23T05:36:47.934Z,98440.53
2022-10-23T05:39:14.714Z,98444.94
2022-10-23T05:41:41.391Z,98445.56
2022-10-23T05:44:08.004Z,98442.81
2022-10-23T05:46:34.565Z,98446.31
2022-10-23T05:49:01.244Z,98440.09
2022-10-23T05:51:27.828Z,98446.13
2022-10-23T05:53:55.312Z,98454.16
2022-10-23T05:56:21.827Z,98450.81
2022-10-23T05:58:48.679Z,98451.78
2022-10-23T06:01:15.733Z,98451.81
2022-10-23T06:03:42.353Z,98452.63
2022-10-23T06:06:08.987Z,98447.50
2022-10-23T06:08:35.686Z,98458.06
2022-10-23T06:11:07.098Z,98452.78
2022-10-23T06:13:33.783Z,98440.63
2022-10-23T06:16:00.430Z,98429.16
2022-10-23T06:18:27.012Z,98428.25
2022-10-23T06:20:53.590Z,98426.44
2022-10-23T06:23:20.142Z,98426.28
2022-10-23T06:25:55.766Z,98426.03
2022-10-23T06:28:22.640Z,98428.56
2022-10-23T06:30:49.407Z,98434.38
2022-10-23T06:33:16.002Z,98433.50
2022-10-23T06:35:42.691Z,98441.41
2022-10-23T06:38:10.482Z,98436.03
2022-10-23T06:40:37.762Z,98444.63
2022-10-23T06:43:05.646Z,98448.81
2022-10-23T06:45:34.231Z,98457.38
2022-10-23T06:48:01.109Z,98458.03
2022-10-23T06:50:31.103Z,98458.72
2022-10-23T06:52:57.776Z,98461.50
2022-10-23T06:55:24.702Z,98456.00
2022-10-23T06:57:51.335Z,98444.19
2022-10-23T07:00:18.043Z,98436.63
2022-10-23T07:02:44.808Z,98440.06
2022-10-23T07:05:13.652Z,98436.31
2022-10-23T07:07:40.746Z,98433.38
2022-10-23T07:10:08.284Z,98421.72
2022-10-23T07:12:34.945Z,98421.53
2022-10-23T07:15:01.806Z,98410.69
2022-10-23T07:17:29.470Z,98412.09
2022-10-23T07:19:56.078Z,98418.16
2022-10-23T07:22:23.631Z,98415.47
2022-10-23T07:24:50.262Z,98407.44
2022-10-23T07:27:16.958Z,98420.06
2022-10-23T07:29:43.659Z,98414.38
2022-10-23T07:32:10.289Z,98422.81
2022-10-23T07:34:37.054Z,98420.22
2022-10-23T07:37:03.795Z,98413.97
2022-10-23T07:39:30.440Z,98417.09
2022-10-23T07:41:57.089Z,98406.16
2022-10-23T07:44:25.709Z,98410.06
2022-10-23T07:46:54.328Z,98399.94
2022-10-23T07:49:20.886Z,98412.16
2022-10-23T07:51:50.566Z,98392.38
2022-10-23T07:54:18.577Z,98398.34
2022-10-23T07:56:45.292Z,98394.28
2022-10-23T07:59:13.375Z,98385.00
2022-10-23T08:01:42.659Z,98386.13
2022-10-23T08:04:10.776Z,98380.56
2022-10-23T08:06:37.443Z,98378.94
2022-10-23T08:09:06.526Z,98367.34
2022-10-23T08:11:35.884Z,98374.03
2022-10-23T08:14:04.778Z,98376.00
2022-10-23T08:16:34.596Z,98384.97
2022-10-23T08:19:01.586Z,98393.09
2022-10-23T08:21:28.327Z,98389.50
2022-10-23T08:23:56.525Z,98395.84
2022-10-23T08:26:24.793Z,98398.00
2022-10-23T08:28:52.548Z,98388.47
2022-10-23T08:31:21.438Z,98385.97
2022-10-23T08:36:21.975Z,98380.59
2022-10-23T08:38:49.081Z,98362.56
2022-10-23T08:41:38.697Z,98371.94
2022-10-23T08:44:14.301Z,98364.59
2022-10-23T08:46:47.390Z,98361.59
2022-10-23T08:49:29.235Z,98356.31
2022-10-23T08:52:00.529Z,98370.59
2022-10-23T08:54:36.639Z,98373.22
2022-10-23T08:57:24.131Z,98373.09
2022-10-23T08:59:59.283Z,98367.84
2022-10-23T09:02:33.839Z,98374.88
2022-10-23T09:05:00.477Z,98368.59
2022-10-23T09:07:55.495Z,98359.47
2022-10-23T09:10:31.366Z,98356.41
2022-10-23T09:13:21.137Z,98348.81
2022-10-23T09:15:54.918Z,98353.59
2022-10-23T09:18:24.407Z,98356.72
2022-10-23T09:20:53.114Z,98351.63
2022-10-23T09:23:24.493Z,98339.25
2022-10-23T09:25:57.101Z,98345.75
2022-10-23T09:28:27.780Z,98337.66
2022-10-23T09:30:54.424Z,98341.94
2022-10-23T09:33:22.415Z,98332.97
2022-10-23T09:35:53.154Z,98321.25
2022-10-23T09:38:35.361Z,98320.66
2022-10-23T09:41:07.392Z,98314.13
2022-10-23T09:43:34.213Z,98313.66
2022-10-23T09:46:06.479Z,98317.91
2022-10-23T09:48:34.383Z,98317.34
2022-10-23T09:51:16.068Z,98318.69
2022-10-23T09:53:52.432Z,98315.25
2022-10-23T09:56:40.315Z,98316.59
2022-10-23T09:59:30.464Z,98313.03
2022-10-23T10:01:59.568Z,98315.56
2022-10-23T10:04:41.477Z,98310.59
2022-10-23T10:07:23.825Z,98315.84
2022-10-23T10:09:52.222Z,98316.41
2022-10-23T10:12:29.931Z,98320.47
2022-10-23T10:15:13.141Z,98319.75
2022-10-23T10:17:43.480Z,98318.31
2022-10-23T10:20:47.408Z,98322.78
2022-10-23T10:23:47.414Z,98321.84
2022-10-23T10:26:44.477Z,98308.41
2022-10-23T10:29:13.626Z,98318.41
2022-10-23T10:32:14.016Z,98304.97
2022-10-23T10:34:54.123Z,98309.03
2022-10-23T10:37:45.959Z,98296.22
2022-10-23T10:40:24.164Z,98278.69
2022-10-23T10:43:00.407Z,98283.53
2022-10-23T10:45:57.483Z,98285.72
2022-10-23T10:48:59.967Z,98276.69
2022-10-23T10:51:36.974Z,98280.34
2022-10-23T10:54:06.601Z,98273.28
2022-10-23T10:56:37.391Z,98271.25
2022-10-23T10:59:29.204Z,98270.09
2022-10-23T11:02:04.725Z,98268.72
2022-10-23T11:04:50.649Z,98257.13
2022-10-23T11:07:22.829Z,98267.28
2022-10-23T11:09:50.365Z,98260.41
2022-10-23T11:12:21.847Z,98260.41
2022-10-23T11:14:50.092Z,98251.00
2022-10-23T11:17:27.856Z,98243.75
2022-10-23T11:20:00.056Z,98252.97
2022-10-23T11:22:42.665Z,98243.28
2022-10-23T11:25:30.737Z,98245.16
2022-10-23T11:28:10.325Z,98246.28
2022-10-23T11:30:49.293Z,98229.53
2022-10-23T11:33:30.689Z,98237.97
2022-10-23T11:36:34.372Z,98217.22
2022-10-23T11:39:18.231Z,98202.69
2022-10-23T11:41:59.519Z,98208.03
2022-10-23T11:44:35.177Z,98193.41
2022-10-23T11:47:25.453Z,98188.88
2022-10-23T11:50:05.325Z,98182.75
2022-10-23T11:52:31.949Z,98179.81
2022-10-23T11:55:17.607Z,98174.63
2022-10-23T11:58:05.352Z,98174.34
2022-10-23T12:00:40.387Z,98174.66
2022-10-23T12:03:20.020Z,98176.25
2022-10-23T12:05:46.745Z,98176.19
2022-10-23T12:08:27.381Z,98174.81
2022-10-23T12:10:55.528Z,98174.06
2022-10-23T12:13:45.635Z,98168.66
2022-10-23T12:16:13.399Z,98168.44
2022-10-23T12:18:49.141Z,98162.25
2022-10-23T12:21:19.583Z,98160.34
2022-10-23T12:23:53.677Z,98153.19
2022-10-23T12:26:50.908Z,98156.19
2022-10-23T12:29:26.681Z,98147.97
2022-10-23T12:32:02.367Z,98139.69
2022-10-23T12:34:57.103Z,98139.97
2022-10-23T12:37:55.207Z,98134.75
2022-10-23T12:40:22.627Z,98139.84
2022-10-23T12:42:55.090Z,98136.63
2022-10-23T12:45:28.471Z,98126.59
2022-10-23T12:47:55.047Z,98130.34
2022-10-23T12:50:25.157Z,98121.56
2022-10-23T12:53:03.620Z,98124.22
2022-10-23T12:55:51.643Z,98116.31
2022-10-23T12:58:27.379Z,98119.50
2022-10-23T13:00:56.495Z,98116.28
2022-10-23T13:03:25.343Z,98110.31
2022-10-23T13:05:53.638Z,98105.88
2022-10-23T13:08:22.125Z,98108.38
2022-10-23T13:10:49.354Z,98107.75
2022-10-23T13:13:23.125Z,98099.81
2022-10-23T13:15:50.123Z,98117.94
2022-10-23T13:18:17.880Z,98112.81
2022-10-23T13:20:53.554Z,98106.06
2022-10-23T13:23:31.380Z,98107.81
2022-10-23T13:26:00.621Z,98106.41
2022-10-23T13:28:44.910Z,98109.06
2022-10-23T13:31:12.419Z,98107.38
2022-10-23T13:33:52.890Z,98114.16
2022-10-23T13:36:19.419Z,98106.06
2022-10-23T13:39:09.201Z,98099.00
2022-10-23T13:41:39.356Z,98088.75
2022-10-23T13:44:06.801Z,98074.81
2022-10-23T13:46:33.530Z,98060.84
2022-10-23T13:49:00.358Z,98071.25
2022-10-23T13:51:35.052Z,98065.50
2022-10-23T13:54:03.045Z,98059.78
2022-10-23T13:56:29.683Z,98052.63
2022-10-23T13:58:56.147Z,98058.56
2022-10-23T14:01:24.466Z,98059.69
2022-10-23T14:03:52.309Z,98062.19
2022-10-23T14:06:19.633Z,98060.50
2022-10-23T14:08:46.868Z,98048.53
2022-10-23T14:13:42.265Z,98051.22
2022-10-23T14:16:11.645Z,98045.31
2022-10-23T14:18:38.251Z,98047.78
2022-10-23T14:21:07.263Z,98044.56
2022-10-23T14:23:34.008Z,98032.09
2022-10-23T14:26:08.580Z,98031.22
2022-10-23T14:28:35.284Z,98035.91
2022-10-23T14:31:06.978Z,98040.56
2022-10-23T14:33:34.028Z,98043.50
2022-10-23T14:36:00.787Z,98039.63
2022-10-23T14:38:27.940Z,98039.63
2022-10-23T14:40:54.598Z,98033.44
2022-10-23T14:43:22.011Z,98044.09
2022-10-23T14:45:48.588Z,98044.66
2022-10-23T14:48:15.493Z,98044.47
2022-10-23T14:50:49.669Z,98029.56
2022-10-23T14:53:16.918Z,98037.91
2022-10-23T14:55:43.494Z,98019.28
2022-10-23T14:58:10.108Z,98013.78
2022-10-23T15:00:36.743Z,98017.75
2022-10-23T15:03:03.442Z,98019.47
2022-10-23T15:05:30.086Z,98012.06
2022-10-23T15:07:57.030Z,98016.63
2022-10-23T15:10:23.651Z,98002.38
2022-10-23T15:12:50.176Z,97994.28
2022-10-23T15:15:16.828Z,97992.47
2022-10-23T15:17:43.976Z,97994.28
2022-10-23T15:20:10.809Z,97981.09
2022-10-23T15:22:37.509Z,97984.63
2022-10-23T15:25:04.467Z,97983.78
2022-10-23T15:27:31.116Z,97977.13
2022-10-23T15:29:57.694Z,97961.16
2022-10-23T15:32:24.287Z,97957.72
2022-10-23T15:34:52.175Z,97955.06
2022-10-23T15:37:18.830Z,97946.44
2022-10-23T15:39:45.367Z,97942.53
2022-10-23T15:42:11.879Z,97936.06
2022-10-23T15:44:39.857Z,97933.41
2022-10-23T15:47:06.382Z,97929.25
2022-10-23T15:49:33.357Z,97919.41
2022-10-23T15:52:00.130Z,97916.56
2022-10-23T15:54:30.587Z,97914.38
2022-10-23T15:56:59.411Z,97912.13
2022-10-23T15:59:26.557Z,97907.84
2022-10-23T16:01:53.348Z,97905.47
2022-10-23T16:04:20.162Z,97896.72
2022-10-23T16:06:47.288Z,97893.59
2022-10-23T16:09:14.755Z,97897.47
2022-10-23T16:11:42.714Z,97893.28
2022-10-23T16:14:13.372Z,97890.78
2022-10-23T16:16:40.593Z,97899.91
2022-10-23T16:19:07.381Z,97896.50
2022-10-23T16:21:36.347Z,97888.34
2022-10-23T16:24:05.667Z,97886.53
2022-10-23T16:26:32.514Z,97883.88
2022-10-23T16:29:02.079Z,97891.50
2022-10-23T16:31:29.893Z,97873.00
2022-10-23T16:34:01.635Z,97858.53
2022-10-23T16:36:29.528Z,97856.72
2022-10-23T16:38:56.409Z,97863.69
2022-10-23T16:41:23.205Z,97866.50
2022-10-23T16:43:50.256Z,97852.13
2022-10-23T16:46:19.926Z,97849.72
2022-10-23T16:48:47.371Z,97844.16
2022-10-23T16:51:17.709Z,97846.41
2022-10-23T16:53:45.768Z,97848.78
2022-10-23T16:56:15.253Z,97854.72
2022-10-23T16:58:42.863Z,97856.63
2022-10-23T17:01:30.344Z,97857.63
2022-10-23T17:03:57.611Z,97857.88
2022-10-23T17:06:27.490Z,97866.78
2022-10-23T17:08:55.260Z,97861.38
2022-10-23T17:11:30.937Z,97864.63
2022-10-23T17:14:06.593Z,97860.53
2022-10-23T17:16:38.063Z,97865.34
2022-10-23T17:19:15.909Z,97867.97
2022-10-23T17:21:55.201Z,97857.34
2022-10-23T17:24:23.052Z,97865.81
2022-10-23T17:26:50.011Z,97874.25
2022-10-23T17:29:17.045Z,97860.25
2022-10-23T17:31:46.637Z,97854.38
2022-10-23T17:34:15.764Z,97850.13
2022-10-23T17:36:47.587Z,97843.16
2022-10-23T17:39:16.978Z,97833.84
2022-10-23T17:41:44.182Z,97837.47
2022-10-23T17:44:10.987Z,97834.03
2022-10-23T17:46:37.949Z,97829.78
2022-10-23T17:49:04.828Z,97839.00
2022-10-23T17:51:33.966Z,97841.94
2022-10-23T17:54:03.261Z,97839.44
2022-10-23T17:56:31.730Z,97822.91
2022-10-23T17:59:08.193Z,97836.78
2022-10-23T18:01:35.473Z,97844.94
2022-10-23T18:04:04.055Z,97850.75
2022-10-23T18:06:34.363Z,97854.81
2022-10-23T18:09:02.418Z,97870.78
2022-10-23T18:11:35.693Z,97867.63
2022-10-23T18:14:03.140Z,97861.06
2022-10-23T18:16:29.793Z,97834.88
2022-10-23T18:18:58.606Z,97841.69
2022-10-23T18:21:25.546Z,97836.59
2022-10-23T18:23:52.742Z,97822.91
2022-10-23T18:26:22.629Z,97818.63
2022-10-23T18:28:50.955Z,97813.81
2022-10-23T18:31:19.313Z,97829.00
2022-10-23T18:33:46.224Z,97820.63
2022-10-23T18:36:33.639Z,97803.81
2022-10-23T18:39:00.391Z,97785.78
2022-10-23T18:41:27.428Z,97777.16
2022-10-23T18:43:55.004Z,97763.38
2022-10-23T18:46:22.467Z,97760.66
2022-10-23T18:48:53.066Z,97750.31
2022-10-23T18:51:28.925Z,97741.31
2022-10-23T18:53:56.567Z,97747.19
2022-10-23T18:56:26.126Z,97750.16
2022-10-23T18:58:55.842Z,97750.78
2022-10-23T19:01:23.927Z,97748.63
2022-10-23T19:03:50.863Z,97745.09
2022-10-23T19:06:18.484Z,97756.50
2022-10-23T19:08:46.069Z,97754.41
2022-10-23T19:11:15.288Z,97758.78
2022-10-23T19:13:43.014Z,97758.13
2022-10-23T19:16:29.300Z,97776.06
2022-10-23T19:19:01.590Z,97784.19
2022-10-23T19:21:33.320Z,97785.06
2022-10-23T19:24:10.071Z,97787.16
2022-10-23T19:26:39.460Z,97811.69
2022-10-23T19:29:09.770Z,97819.47
2022-10-23T19:31:36.447Z,97833.28
2022-10-23T19:34:03.107Z,97843.66
2022-10-23T19:36:29.647Z,97847.47
2022-10-23T19:38:56.119Z,97847.13
2022-10-23T19:41:22.533Z,97864.66
2022-10-23T19:43:48.959Z,97862.34
2022-10-23T19:46:16.207Z,97866.28
2022-10-23T19:48:44.557Z,97873.50
2022-10-23T19:51:13.044Z,97874.03
2022-10-23T19:53:40.916Z,97888.84
2022-10-23T19:56:09.624Z,97909.34
2022-10-23T19:58:36.403Z,97940.56
2022-10-23T20:01:08.326Z,97977.53
2022-10-23T20:03:35.191Z,97998.94
2022-10-23T20:06:01.819Z,98012.38
2022-10-23T20:08:32.628Z,98025.31
2022-10-23T20:11:01.658Z,98026.25
2022-10-23T20:13:28.264Z,98029.41
2022-10-23T20:15:55.305Z,98031.16
2022-10-23T20:18:21.878Z,98026.91
2022-10-23T20:20:48.535Z,98015.06
2022-10-23T20:23:15.152Z,98003.06
2022-10-23T20:25:41.746Z,98002.63
2022-10-23T20:28:10.322Z,98005.56
2022-10-23T20:30:41.513Z,98015.47
2022-10-23T20:33:08.301Z,98019.09
2022-10-23T20:35:41.928Z,98009.25
2022-10-23T20:38:09.756Z,97994.78
2022-10-23T20:40:36.439Z,97983.91
2022-10-23T20:43:03.296Z,97975.22
2022-10-23T20:45:29.959Z,97980.41
2022-10-23T20:47:57.030Z,97981.47
2022-10-23T20:50:23.965Z,97995.03
2022-10-23T20:52:50.891Z,97989.94
2022-10-23T20:55:17.816Z,98000.53
2022-10-23T20:57:44.736Z,98012.19
2022-10-23T21:00:11.919Z,98007.53
2022-10-23T21:02:38.610Z,98006.66
2022-10-23T21:05:05.549Z,98008.63
2022-10-23T21:07:32.214Z,98012.25
2022-10-23T21:09:58.783Z,98014.72
2022-10-23T21:12:25.434Z,98001.50
2022-10-23T21:14:53.495Z,97980.38
2022-10-23T21:17:20.481Z,97974.97
2022-10-23T21:19:47.567Z,97984.44
2022-10-23T21:22:14.274Z,97948.97
2022-10-23T21:24:40.820Z,97952.69
2022-10-23T21:27:07.359Z,97946.63
2022-10-23T21:29:34.074Z,97940.56
2022-10-23T21:32:03.559Z,97946.63
2022-10-23T21:34:30.909Z,97940.09
2022-10-23T21:37:14.149Z,97931.22
2022-10-23T21:39:43.194Z,97927.50
2022-10-23T21:42:10.447Z,97936.69
2022-10-23T21:44:37.410Z,97930.38
2022-10-23T21:47:04.169Z,97926.69
2022-10-23T21:49:30.914Z,97928.09
2022-10-23T21:51:57.519Z,97919.22
2022-10-23T21:54:24.206Z,97926.38
2022-10-23T21:56:53.889Z,97922.09
2022-10-23T21:59:24.510Z,97925.81
2022-10-23T22:01:52.133Z,97919.41
2022-10-23T22:04:20.498Z,97924.09
2022-10-23T22:06:48.538Z,97932.09
2022-10-23T22:09:19.552Z,97921.41
2022-10-23T22:11:48.137Z,97924.28
2022-10-23T22:14:14.707Z,97914.22
2022-10-23T22:16:42.219Z,97919.06
2022-10-23T22:19:12.030Z,97922.34
2022-10-23T22:21:39.321Z,97917.06
2022-10-23T22:24:06.450Z,97917.16
2022-10-23T22:26:34.523Z,97916.91
2022-10-23T22:29:04.377Z,97904.63
2022-10-23T22:31:32.939Z,97898.88
2022-10-23T22:34:08.594Z,97897.03
2022-10-23T22:36:45.526Z,97906.69
2022-10-23T22:39:12.596Z,97910.09
2022-10-23T22:41:39.626Z,97899.03
2022-10-23T22:44:06.288Z,97900.66
2022-10-23T22:46:33.008Z,97887.78
2022-10-23T22:48:59.653Z,97896.47
2022-10-23T22:51:28.797Z,97900.75
2022-10-23T22:53:56.550Z,97899.97
2022-10-23T22:56:25.299Z,97909.16
2022-10-23T22:58:52.445Z,97917.72
2022-10-23T23:01:23.934Z,97914.31
2022-10-23T23:03:51.564Z,97907.13
2022-10-23T23:06:19.029Z,97910.91
2022-10-23T23:08:45.839Z,97907.13
2022-10-23T23:11:14.892Z,97909.69
2022-10-23T23:13:42.393Z,97919.75
2022-10-23T23:16:16.750Z,97913.13
2022-10-23T23:18:43.391Z,97909.94
2022-10-23T23:21:09.962Z,97909.09
2022-10-23T23:23:36.821Z,97903.25
2022-10-23T23:26:05.945Z,97901.22
2022-10-23T23:28:33.015Z,97904.47
2022-10-23T23:31:05.872Z,97900.47
2022-10-23T23:33:32.537Z,97906.63
2022-10-23T23:35:59.186Z,97905.56
2022-10-23T23:38:26.195Z,97910.53
2022-10-23T23:40:53.937Z,97905.69
2022-10-23T23:43:20.742Z,97902.13
2022-10-23T23:45:47.436Z,97913.41
2022-10-23T23:48:14.170Z,97916.75
2022-10-23T23:50:41.755Z,97915.50
2022-10-23T23:53:08.375Z,97913.31
2022-10-23T23:55:35.126Z,97922.66
2022-10-23T23:58:01.859Z,97924.25
